Time;durP1;ratioP1;P1;durP2;ratioP2;P2;SDS_P1;SDS_P2;PMS_P1;PMS_P2;Temp;Humidity;BMP_temperature;BMP_pressure;BME280_temperature;BME280_humidity;BME280_pressure;Samples;Min_cycle;Max_cycle;Signal;HPM_P1;HPM_P2
2023/01/23 00:01:17;;;;;;;25.70;12.05;;;;;;;;;;5015206;28;20033;-56
2023/01/23 00:03:43;;;;;;;24.17;12.07;;;;;;;;;;5012768;28;20115;-56
2023/01/23 00:06:14;;;;;;;25.75;11.82;;;;;;;;;;5015036;28;20034;-57
2023/01/23 00:08:41;;;;;;;21.92;12.32;;;;;;;;;;5015663;28;20029;-57
2023/01/23 00:11:10;;;;;;;24.67;11.60;;;;;;;;;;5014088;28;20033;-57
2023/01/23 00:13:36;;;;;;;26.90;12.10;;;;;;;;;;5016810;28;21043;-57
2023/01/23 00:16:11;;;;;;;22.42;11.50;;;;;;;;;;5018478;28;20038;-60
2023/01/23 00:18:37;;;;;;;24.52;12.07;;;;;;;;;;5017681;28;20025;-58
2023/01/23 00:21:12;;;;;;;24.95;12.23;;;;;;;;;;5019669;28;20368;-55
2023/01/23 00:23:40;;;;;;;23.95;11.95;;;;;;;;;;5009992;28;20025;-59
2023/01/23 00:26:09;;;;;;;24.67;11.65;;;;;;;;;;5024101;28;20034;-58
2023/01/23 00:28:35;;;;;;;23.08;11.48;;;;;;;;;;5030275;28;20208;-53
2023/01/23 00:31:14;;;;;;;21.63;11.23;;;;;;;;;;5018576;28;21960;-55
2023/01/23 00:33:40;;;;;;;20.92;10.98;;;;;;;;;;5014696;28;20516;-53
2023/01/23 00:36:06;;;;;;;24.10;11.95;;;;;;;;;;5016370;28;20033;-59
2023/01/23 00:38:31;;;;;;;23.33;11.38;;;;;;;;;;5014895;28;20033;-53
2023/01/23 00:40:57;;;;;;;23.45;11.50;;;;;;;;;;5020198;28;20040;-53
2023/01/23 00:43:23;;;;;;;22.90;11.30;;;;;;;;;;5016004;28;20057;-56
2023/01/23 00:45:48;;;;;;;22.25;11.68;;;;;;;;;;5017922;28;20029;-57
2023/01/23 00:48:14;;;;;;;24.50;12.00;;;;;;;;;;5018457;28;20033;-60
2023/01/23 00:50:39;;;;;;;24.40;11.80;;;;;;;;;;5019519;28;20038;-55
2023/01/23 00:53:05;;;;;;;22.70;11.35;;;;;;;;;;5018207;28;20109;-56
2023/01/23 00:55:30;;;;;;;24.55;11.50;;;;;;;;;;5018920;28;20040;-60
2023/01/23 00:57:56;;;;;;;22.00;11.95;;;;;;;;;;5018009;28;20053;-57
2023/01/23 01:00:21;;;;;;;23.55;10.98;;;;;;;;;;5013969;28;20140;-56
2023/01/23 01:02:47;;;;;;;22.38;11.55;;;;;;;;;;5024796;28;20021;-56
2023/01/23 01:05:12;;;;;;;24.30;12.20;;;;;;;;;;5024258;28;20025;-55
2023/01/23 01:07:38;;;;;;;24.83;11.95;;;;;;;;;;5024505;28;20070;-57
2023/01/23 01:10:04;;;;;;;22.15;11.48;;;;;;;;;;5021689;28;20034;-55
2023/01/23 01:12:29;;;;;;;27.80;12.52;;;;;;;;;;5021985;28;20490;-55
2023/01/23 01:14:54;;;;;;;24.83;12.05;;;;;;;;;;5020036;28;20034;-54
2023/01/23 01:17:20;;;;;;;24.48;11.85;;;;;;;;;;5018599;28;20457;-57
2023/01/23 01:19:45;;;;;;;21.88;11.35;;;;;;;;;;5018529;28;20105;-52
2023/01/23 01:22:11;;;;;;;24.08;11.45;;;;;;;;;;5019772;28;20065;-55
2023/01/23 01:24:36;;;;;;;27.15;13.32;;;;;;;;;;5016545;28;20044;-54
2023/01/23 01:27:02;;;;;;;23.77;11.25;;;;;;;;;;5017391;28;20372;-54
2023/01/23 01:29:27;;;;;;;21.52;11.05;;;;;;;;;;5018150;28;20025;-59
2023/01/23 01:31:52;;;;;;;22.42;11.18;;;;;;;;;;5018278;28;20060;-54
2023/01/23 01:34:18;;;;;;;24.27;11.63;;;;;;;;;;5018031;28;20426;-59
2023/01/23 01:36:43;;;;;;;24.58;11.65;;;;;;;;;;5017578;28;20045;-53
2023/01/23 01:39:09;;;;;;;22.58;11.65;;;;;;;;;;5021859;28;20072;-55
2023/01/23 01:41:34;;;;;;;23.48;11.93;;;;;;;;;;5020549;28;20064;-54
2023/01/23 01:44:00;;;;;;;25.42;11.88;;;;;;;;;;5018682;28;20033;-59
2023/01/23 01:46:27;;;;;;;21.52;11.27;;;;;;;;;;5017306;28;20025;-56
2023/01/23 01:48:58;;;;;;;21.65;11.57;;;;;;;;;;5015707;28;20104;-52
2023/01/23 01:51:32;;;;;;;21.17;11.25;;;;;;;;;;5016013;28;20108;-54
2023/01/23 01:54:01;;;;;;;21.70;10.70;;;;;;;;;;5031857;28;20030;-54
2023/01/23 01:56:30;;;;;;;22.40;11.40;;;;;;;;;;5017442;28;20037;-60
2023/01/23 01:58:56;;;;;;;21.80;11.13;;;;;;;;;;5017850;28;20060;-59
2023/01/23 02:01:21;;;;;;;22.27;11.48;;;;;;;;;;5018090;28;20041;-59
2023/01/23 02:03:49;;;;;;;23.75;11.88;;;;;;;;;;5016961;28;20032;-57
2023/01/23 02:06:15;;;;;;;23.42;11.60;;;;;;;;;;5017877;28;20033;-54
2023/01/23 02:09:00;;;;;;;24.80;11.40;;;;;;;;;;5018507;28;20189;-57
2023/01/23 02:11:26;;;;;;;21.88;11.05;;;;;;;;;;5017040;28;20021;-57
2023/01/23 02:13:54;;;;;;;22.50;11.38;;;;;;;;;;5020219;28;20049;-54
2023/01/23 02:16:22;;;;;;;22.17;11.05;;;;;;;;;;5018229;28;20025;-59
2023/01/23 02:18:52;;;;;;;23.00;11.55;;;;;;;;;;5015699;28;20026;-54
2023/01/23 02:21:21;;;;;;;21.02;10.85;;;;;;;;;;5011414;28;20037;-53
2023/01/23 02:24:05;;;;;;;25.27;11.65;;;;;;;;;;5015894;28;21208;-55
2023/01/23 02:26:36;;;;;;;21.15;11.18;;;;;;;;;;5030904;28;20482;-59
2023/01/23 02:29:02;;;;;;;;;;;;;;;;;;5019054;28;20034;-55
2023/01/23 02:31:28;;;;;;;19.88;10.32;;;;;;;;;;5018338;28;19914;-56
2023/01/23 02:33:56;;;;;;;22.02;11.48;;;;;;;;;;5031411;28;20380;-53
2023/01/23 02:36:24;;;;;;;22.67;11.50;;;;;;;;;;5020678;28;20260;-60
2023/01/23 02:39:03;;;;;;;23.23;11.65;;;;;;;;;;5016986;28;20029;-54
2023/01/23 02:41:35;;;;;;;26.35;11.75;;;;;;;;;;5020870;28;20037;-55
2023/01/23 02:44:17;;;;;;;22.00;11.15;;;;;;;;;;5018444;28;20030;-57
2023/01/23 02:46:43;;;;;;;22.88;11.85;;;;;;;;;;5017467;28;20029;-59
2023/01/23 02:49:08;;;;;;;26.52;11.82;;;;;;;;;;5014411;28;20640;-60
2023/01/23 02:51:34;;;;;;;23.08;10.90;;;;;;;;;;5018148;28;20120;-58
2023/01/23 02:54:00;;;;;;;25.42;11.77;;;;;;;;;;5015936;28;20033;-59
2023/01/23 02:56:25;;;;;;;23.42;11.77;;;;;;;;;;5016799;28;20149;-59
2023/01/23 03:01:35;;;;;;;21.85;11.50;;;;;;;;;;5015735;28;20450;-53
2023/01/23 03:04:05;;;;;;;23.05;12.10;;;;;;;;;;5016358;28;20482;-57
2023/01/23 03:06:35;;;;;;;23.40;11.57;;;;;;;;;;5017356;28;20367;-55
2023/01/23 03:09:12;;;;;;;22.45;11.60;;;;;;;;;;5021500;28;20155;-53
2023/01/23 03:11:39;;;;;;;25.17;12.18;;;;;;;;;;5013534;28;20036;-52
2023/01/23 03:14:11;;;;;;;24.90;12.77;;;;;;;;;;5017192;28;20112;-58
2023/01/23 03:16:36;;;;;;;;;;;;;;;;;;5015108;28;20021;-57
2023/01/23 03:19:04;;;;;;;23.05;10.55;;;;;;;;;;5019512;28;19917;-54
2023/01/23 03:21:35;;;;;;;23.88;11.38;;;;;;;;;;5018280;28;21180;-57
2023/01/23 03:24:03;;;;;;;23.77;11.63;;;;;;;;;;5020075;28;20037;-53
2023/01/23 03:26:29;;;;;;;22.88;11.10;;;;;;;;;;5015942;28;20042;-53
2023/01/23 03:31:39;;;;;;;24.25;11.45;;;;;;;;;;5017193;28;20032;-54
2023/01/23 03:34:04;;;;;;;21.55;10.95;;;;;;;;;;5014911;28;20030;-60
2023/01/23 03:36:30;;;;;;;22.95;11.13;;;;;;;;;;5022735;28;20132;-54
2023/01/23 03:41:40;;;;;;;24.30;11.60;;;;;;;;;;5024976;28;20076;-54
2023/01/23 03:44:08;;;;;;;22.83;10.68;;;;;;;;;;5027174;28;20036;-53
2023/01/23 03:46:33;;;;;;;21.83;11.40;;;;;;;;;;5028572;28;20108;-57
2023/01/23 03:48:59;;;;;;;20.25;10.70;;;;;;;;;;5023485;28;20109;-57
2023/01/23 03:51:24;;;;;;;22.02;10.82;;;;;;;;;;5014738;28;20326;-60
2023/01/23 03:53:50;;;;;;;22.48;11.50;;;;;;;;;;5016024;28;20083;-54
2023/01/23 03:56:15;;;;;;;20.08;10.75;;;;;;;;;;5016133;28;20130;-57
2023/01/23 03:58:41;;;;;;;20.70;10.10;;;;;;;;;;5014592;28;20067;-54
2023/01/23 04:01:08;;;;;;;21.73;11.02;;;;;;;;;;5017714;28;20038;-54
2023/01/23 04:03:34;;;;;;;22.25;11.32;;;;;;;;;;5014041;28;20030;-54
2023/01/23 04:05:59;;;;;;;22.92;11.50;;;;;;;;;;5015665;28;20048;-57
2023/01/23 04:08:25;;;;;;;22.02;11.57;;;;;;;;;;5018507;28;20471;-57
2023/01/23 04:10:50;;;;;;;21.17;10.93;;;;;;;;;;5030987;28;20033;-54
2023/01/23 04:13:16;;;;;;;18.42;9.80;;;;;;;;;;5030511;28;20045;-53
2023/01/23 04:15:41;;;;;;;21.17;10.63;;;;;;;;;;5022581;28;20513;-52
2023/01/23 04:18:07;;;;;;;21.10;10.73;;;;;;;;;;5019880;28;20454;-60
2023/01/23 04:20:32;;;;;;;22.55;11.05;;;;;;;;;;5015610;28;20034;-53
2023/01/23 04:22:58;;;;;;;21.02;10.88;;;;;;;;;;5022615;28;20351;-53
2023/01/23 04:25:23;;;;;;;23.17;11.43;;;;;;;;;;5017537;28;20049;-55
2023/01/23 04:27:49;;;;;;;23.92;10.73;;;;;;;;;;5018667;28;20478;-59
2023/01/23 04:30:14;;;;;;;21.42;11.05;;;;;;;;;;5019798;28;20055;-52
2023/01/23 04:32:40;;;;;;;21.50;10.32;;;;;;;;;;5007789;28;20025;-53
2023/01/23 04:35:05;;;;;;;20.67;11.25;;;;;;;;;;5019204;28;20434;-54
2023/01/23 04:37:31;;;;;;;20.58;10.43;;;;;;;;;;5019560;28;20041;-59
2023/01/23 04:39:56;;;;;;;19.65;10.52;;;;;;;;;;5019160;28;20390;-53
2023/01/23 04:42:21;;;;;;;21.55;11.25;;;;;;;;;;5018760;28;20033;-52
2023/01/23 04:44:47;;;;;;;21.05;11.60;;;;;;;;;;5018251;28;20025;-54
2023/01/23 04:47:12;;;;;;;21.17;10.98;;;;;;;;;;5019046;28;20026;-56
2023/01/23 04:49:38;;;;;;;21.98;11.05;;;;;;;;;;5015739;28;20423;-60
2023/01/23 04:52:03;;;;;;;19.98;10.68;;;;;;;;;;5019004;28;20055;-56
2023/01/23 04:54:29;;;;;;;21.23;10.73;;;;;;;;;;5021184;28;20037;-61
2023/01/23 04:56:54;;;;;;;20.38;10.10;;;;;;;;;;5017052;28;20057;-57
2023/01/23 04:59:21;;;;;;;23.20;11.68;;;;;;;;;;5016560;28;20045;-58
2023/01/23 05:01:47;;;;;;;24.08;10.85;;;;;;;;;;5017481;28;20041;-55
2023/01/23 05:04:12;;;;;;;22.25;11.25;;;;;;;;;;5033811;28;20038;-55
2023/01/23 05:06:38;;;;;;;22.58;11.18;;;;;;;;;;5020753;28;20455;-55
2023/01/23 05:09:04;;;;;;;23.67;11.50;;;;;;;;;;5020913;28;20482;-56
2023/01/23 05:11:30;;;;;;;23.20;11.40;;;;;;;;;;5019786;28;20038;-59
2023/01/23 05:13:55;;;;;;;25.92;11.55;;;;;;;;;;5018835;28;20034;-57
2023/01/23 05:16:20;;;;;;;25.15;11.55;;;;;;;;;;5014536;28;20105;-56
2023/01/23 05:18:46;;;;;;;24.25;11.65;;;;;;;;;;5014640;28;20022;-57
2023/01/23 05:21:11;;;;;;;24.65;11.90;;;;;;;;;;5019577;28;20033;-60
2023/01/23 05:23:37;;;;;;;25.98;12.40;;;;;;;;;;5018496;28;20034;-56
2023/01/23 05:26:02;;;;;;;24.60;11.70;;;;;;;;;;5017598;28;20056;-57
2023/01/23 05:28:27;;;;;;;23.00;11.43;;;;;;;;;;5020179;28;20038;-59
2023/01/23 05:30:53;;;;;;;26.00;11.90;;;;;;;;;;5020445;28;20122;-57
2023/01/23 05:33:18;;;;;;;24.13;11.73;;;;;;;;;;5022339;28;20055;-56
2023/01/23 05:35:44;;;;;;;22.33;10.88;;;;;;;;;;5020880;28;20029;-57
2023/01/23 05:38:11;;;;;;;22.65;10.80;;;;;;;;;;5017086;28;20037;-57
2023/01/23 05:40:36;;;;;;;24.58;11.23;;;;;;;;;;5051768;28;20653;-57
2023/01/23 05:43:02;;;;;;;23.55;11.13;;;;;;;;;;5020421;28;20530;-57
2023/01/23 05:45:27;;;;;;;22.02;10.73;;;;;;;;;;5017636;28;20040;-55
2023/01/23 05:47:54;;;;;;;22.90;11.20;;;;;;;;;;5015963;28;20105;-58
2023/01/23 05:50:22;;;;;;;22.67;11.13;;;;;;;;;;5016141;28;21572;-57
2023/01/23 05:52:48;;;;;;;23.08;11.18;;;;;;;;;;5018348;28;20030;-56
2023/01/23 05:55:14;;;;;;;24.17;11.57;;;;;;;;;;5023544;28;20371;-60
2023/01/23 05:57:40;;;;;;;22.38;11.23;;;;;;;;;;5026197;28;20034;-58
2023/01/23 06:00:07;;;;;;;22.67;11.70;;;;;;;;;;5031162;28;20089;-57
2023/01/23 06:02:33;;;;;;;21.88;11.40;;;;;;;;;;5026135;28;20037;-59
2023/01/23 06:04:58;;;;;;;22.02;11.30;;;;;;;;;;5021276;28;20032;-57
2023/01/23 06:07:24;;;;;;;24.42;11.02;;;;;;;;;;5013706;28;20030;-55
2023/01/23 06:09:49;;;;;;;23.27;11.40;;;;;;;;;;5012408;28;20395;-57
2023/01/23 06:12:15;;;;;;;25.08;11.80;;;;;;;;;;5049526;28;20029;-57
2023/01/23 06:14:40;;;;;;;23.67;11.05;;;;;;;;;;5052508;28;20442;-62
2023/01/23 06:17:06;;;;;;;22.98;11.73;;;;;;;;;;5053099;28;20048;-54
2023/01/23 06:19:31;;;;;;;21.70;11.23;;;;;;;;;;5052946;28;20584;-57
2023/01/23 06:21:57;;;;;;;22.65;11.45;;;;;;;;;;5037512;28;20506;-57
2023/01/23 06:24:22;;;;;;;22.33;10.95;;;;;;;;;;5015859;28;20025;-57
2023/01/23 06:26:48;;;;;;;22.98;11.00;;;;;;;;;;5032956;28;20033;-55
2023/01/23 06:29:13;;;;;;;20.38;9.95;;;;;;;;;;5031558;28;20040;-55
2023/01/23 06:31:39;;;;;;;20.63;10.57;;;;;;;;;;5029169;28;20056;-56
2023/01/23 06:34:05;;;;;;;21.58;10.57;;;;;;;;;;5033024;28;20026;-58
2023/01/23 06:36:30;;;;;;;21.77;10.90;;;;;;;;;;5031706;28;20080;-59
2023/01/23 06:38:56;;;;;;;21.38;10.05;;;;;;;;;;5020852;28;20034;-57
2023/01/23 06:41:21;;;;;;;21.80;10.50;;;;;;;;;;5027725;28;20396;-57
2023/01/23 06:43:47;;;;;;;22.30;10.27;;;;;;;;;;5011089;28;20041;-61
2023/01/23 06:46:13;;;;;;;20.77;10.55;;;;;;;;;;5029970;28;20038;-60
2023/01/23 06:48:38;;;;;;;23.38;10.77;;;;;;;;;;5031409;28;20029;-62
2023/01/23 06:51:05;;;;;;;21.33;10.15;;;;;;;;;;5029234;28;20430;-59
2023/01/23 06:53:31;;;;;;;18.65;9.68;;;;;;;;;;5033798;28;20033;-58
2023/01/23 06:56:01;;;;;;;21.10;10.32;;;;;;;;;;5027731;28;20126;-58
2023/01/23 06:58:27;;;;;;;23.40;11.00;;;;;;;;;;5018459;28;20041;-59
2023/01/23 07:00:53;;;;;;;20.08;10.07;;;;;;;;;;5044995;28;20049;-53
2023/01/23 07:03:18;;;;;;;22.55;10.75;;;;;;;;;;5032613;28;20032;-60
2023/01/23 07:05:44;;;;;;;20.20;10.85;;;;;;;;;;5028132;28;20025;-60
2023/01/23 07:08:10;;;;;;;20.50;10.38;;;;;;;;;;5024080;28;20458;-53
2023/01/23 07:10:36;;;;;;;22.63;10.50;;;;;;;;;;5028216;28;20065;-58
2023/01/23 07:13:06;;;;;;;22.75;9.95;;;;;;;;;;5033658;28;20029;-60
2023/01/23 07:15:32;;;;;;;20.25;9.80;;;;;;;;;;5017528;28;20033;-60
2023/01/23 07:17:58;;;;;;;22.92;10.50;;;;;;;;;;5030942;28;20033;-60
2023/01/23 07:20:26;;;;;;;20.25;9.80;;;;;;;;;;5031897;28;20029;-60
2023/01/23 07:22:55;;;;;;;20.88;10.52;;;;;;;;;;5045712;28;20028;-60
2023/01/23 07:25:22;;;;;;;21.23;10.05;;;;;;;;;;5041620;28;20036;-60
2023/01/23 07:27:47;;;;;;;20.98;10.32;;;;;;;;;;5027679;28;20032;-60
2023/01/23 07:30:13;;;;;;;19.73;9.90;;;;;;;;;;5028293;28;20038;-60
2023/01/23 07:32:39;;;;;;;22.00;10.68;;;;;;;;;;5030060;28;20029;-61
2023/01/23 07:35:05;;;;;;;22.98;11.43;;;;;;;;;;5031484;28;20378;-62
2023/01/23 07:37:30;;;;;;;19.05;9.70;;;;;;;;;;5031711;28;20458;-60
2023/01/23 07:39:56;;;;;;;20.40;9.98;;;;;;;;;;5028875;28;20041;-58
2023/01/23 07:42:22;;;;;;;20.20;10.32;;;;;;;;;;5030875;28;20108;-60
2023/01/23 07:44:47;;;;;;;19.88;9.55;;;;;;;;;;5030689;28;20033;-60
2023/01/23 07:47:13;;;;;;;23.25;10.10;;;;;;;;;;5032870;28;20120;-58
2023/01/23 07:49:38;;;;;;;18.90;9.80;;;;;;;;;;5030643;28;20040;-61
2023/01/23 07:52:04;;;;;;;20.13;10.00;;;;;;;;;;5029738;28;20390;-60
2023/01/23 07:54:29;;;;;;;21.08;9.85;;;;;;;;;;5031399;28;20057;-60
2023/01/23 07:56:54;;;;;;;20.25;10.63;;;;;;;;;;5043660;28;20029;-59
2023/01/23 07:59:20;;;;;;;21.73;10.20;;;;;;;;;;5031712;28;20045;-61
2023/01/23 08:01:47;;;;;;;21.60;10.43;;;;;;;;;;5030970;28;20073;-60
2023/01/23 08:04:13;;;;;;;20.15;10.05;;;;;;;;;;5037562;28;20029;-60
2023/01/23 08:06:39;;;;;;;22.00;11.02;;;;;;;;;;5017948;28;20382;-62
2023/01/23 08:09:04;;;;;;;23.90;10.80;;;;;;;;;;5029429;28;20030;-57
2023/01/23 08:11:30;;;;;;;21.42;10.90;;;;;;;;;;5030515;28;20386;-60
2023/01/23 08:13:55;;;;;;;21.77;10.90;;;;;;;;;;5040949;28;20040;-60
2023/01/23 08:16:21;;;;;;;23.92;10.80;;;;;;;;;;5030888;28;20095;-56
2023/01/23 08:18:46;;;;;;;21.52;10.38;;;;;;;;;;5020127;28;20041;-61
2023/01/23 08:21:11;;;;;;;25.35;11.43;;;;;;;;;;5027906;28;20040;-58
2023/01/23 08:23:37;;;;;;;21.98;10.88;;;;;;;;;;5028595;28;20123;-60
2023/01/23 08:26:05;;;;;;;23.92;10.40;;;;;;;;;;5025416;28;20045;-60
2023/01/23 08:28:31;;;;;;;23.13;10.27;;;;;;;;;;5028178;28;20021;-60
2023/01/23 08:31:04;;;;;;;22.00;11.05;;;;;;;;;;5028687;28;20033;-60
2023/01/23 08:33:29;;;;;;;24.65;11.02;;;;;;;;;;5028938;28;20037;-60
2023/01/23 08:35:57;;;;;;;21.10;10.93;;;;;;;;;;5024843;28;20064;-60
2023/01/23 08:38:23;;;;;;;22.98;11.10;;;;;;;;;;5019106;28;20038;-60
2023/01/23 08:40:50;;;;;;;21.15;10.43;;;;;;;;;;5012332;28;20026;-60
2023/01/23 08:43:16;;;;;;;24.30;11.10;;;;;;;;;;5032086;28;20033;-61
2023/01/23 08:45:51;;;;;;;22.90;10.73;;;;;;;;;;5026431;28;20064;-62
2023/01/23 08:48:17;;;;;;;22.00;10.93;;;;;;;;;;5017950;28;20038;-58
2023/01/23 08:50:42;;;;;;;22.40;10.85;;;;;;;;;;5030092;28;20084;-62
2023/01/23 08:53:07;;;;;;;22.33;10.77;;;;;;;;;;5030386;28;20044;-61
2023/01/23 08:55:34;;;;;;;22.33;11.07;;;;;;;;;;5021205;28;20120;-58
2023/01/23 08:58:01;;;;;;;21.58;10.73;;;;;;;;;;5030079;28;20124;-60
2023/01/23 09:00:27;;;;;;;20.88;10.63;;;;;;;;;;5027200;28;20045;-58
2023/01/23 09:02:52;;;;;;;25.70;11.20;;;;;;;;;;5021786;28;20037;-59
2023/01/23 09:05:17;;;;;;;23.02;10.95;;;;;;;;;;5031461;28;20097;-58
2023/01/23 09:07:43;;;;;;;22.45;10.82;;;;;;;;;;5030932;28;20111;-62
2023/01/23 09:10:09;;;;;;;21.30;10.35;;;;;;;;;;5043137;28;20037;-60
2023/01/23 09:12:35;;;;;;;19.65;10.02;;;;;;;;;;5024506;28;20136;-56
2023/01/23 09:15:00;;;;;;;18.85;10.23;;;;;;;;;;5026351;28;20034;-62
2023/01/23 09:17:26;;;;;;;20.83;10.55;;;;;;;;;;5044418;28;20052;-61
2023/01/23 09:19:52;;;;;;;22.10;10.73;;;;;;;;;;5032161;28;20052;-61
2023/01/23 09:22:18;;;;;;;19.88;10.45;;;;;;;;;;5033924;28;20104;-60
2023/01/23 09:24:43;;;;;;;19.92;10.13;;;;;;;;;;5033374;28;20144;-63
2023/01/23 09:27:09;;;;;;;18.92;10.45;;;;;;;;;;5030770;28;20025;-61
2023/01/23 09:29:35;;;;;;;18.50;9.55;;;;;;;;;;5023193;28;20033;-61
2023/01/23 09:32:01;;;;;;;19.85;9.57;;;;;;;;;;5031721;28;20877;-62
2023/01/23 09:34:28;;;;;;;18.33;9.73;;;;;;;;;;5032655;28;20084;-62
2023/01/23 09:36:53;;;;;;;18.35;9.38;;;;;;;;;;5052710;28;20037;-61
2023/01/23 09:39:19;;;;;;;19.00;9.23;;;;;;;;;;5046105;28;20029;-61
2023/01/23 09:41:46;;;;;;;18.15;9.20;;;;;;;;;;5032923;28;20112;-63
2023/01/23 09:44:17;;;;;;;17.05;9.05;;;;;;;;;;5035153;28;20024;-61
2023/01/23 09:46:52;;;;;;;16.77;8.70;;;;;;;;;;5023977;28;20116;-60
2023/01/23 09:49:26;;;;;;;16.63;8.95;;;;;;;;;;5031420;28;20437;-57
2023/01/23 09:52:02;;;;;;;16.08;8.98;;;;;;;;;;5035085;28;20109;-59
2023/01/23 09:55:00;;;;;;;15.95;8.35;;;;;;;;;;5032176;28;20106;-58
2023/01/23 09:57:33;;;;;;;14.95;8.18;;;;;;;;;;5025186;28;20568;-59
2023/01/23 10:00:10;;;;;;;15.52;8.40;;;;;;;;;;5011141;28;20050;-60
2023/01/23 10:02:36;;;;;;;15.18;8.27;;;;;;;;;;5030378;28;20499;-58
2023/01/23 10:05:01;;;;;;;17.10;8.90;;;;;;;;;;5012626;28;20132;-58
2023/01/23 10:07:29;;;;;;;14.68;7.88;;;;;;;;;;5017204;28;20116;-59
2023/01/23 10:09:55;;;;;;;14.00;8.50;;;;;;;;;;5029229;28;20041;-54
2023/01/23 10:12:46;;;;;;;13.70;8.40;;;;;;;;;;5030463;28;20036;-61
2023/01/23 10:15:14;;;;;;;13.35;7.43;;;;;;;;;;5021886;28;20026;-61
2023/01/23 10:18:07;;;;;;;14.77;8.57;;;;;;;;;;5030458;28;20037;-60
2023/01/23 10:20:45;;;;;;;14.95;8.27;;;;;;;;;;5030303;28;20494;-61
2023/01/23 10:23:22;;;;;;;12.52;7.70;;;;;;;;;;5046312;28;20048;-60
2023/01/23 10:25:48;;;;;;;13.68;7.70;;;;;;;;;;5042495;28;20060;-62
2023/01/23 10:28:14;;;;;;;14.38;7.90;;;;;;;;;;5018092;28;20372;-58
2023/01/23 10:30:40;;;;;;;14.40;8.30;;;;;;;;;;5042852;28;20032;-61
2023/01/23 10:33:08;;;;;;;14.05;7.80;;;;;;;;;;5043152;28;20100;-61
2023/01/23 10:35:43;;;;;;;15.57;8.38;;;;;;;;;;5044943;28;20025;-60
2023/01/23 10:38:37;;;;;;;13.40;7.75;;;;;;;;;;5020188;28;20045;-56
2023/01/23 10:41:18;;;;;;;14.02;7.72;;;;;;;;;;5013669;28;20069;-58
2023/01/23 10:43:48;;;;;;;13.77;8.07;;;;;;;;;;5028151;28;20499;-62
2023/01/23 10:46:28;;;;;;;14.10;7.50;;;;;;;;;;5019420;28;20026;-62
2023/01/23 10:48:53;;;;;;;12.95;7.40;;;;;;;;;;5013794;28;20045;-62
2023/01/23 10:51:36;;;;;;;12.38;7.28;;;;;;;;;;5026585;28;20041;-61
2023/01/23 10:54:08;;;;;;;14.40;8.30;;;;;;;;;;5015402;28;20030;-61
2023/01/23 10:56:36;;;;;;;13.98;8.00;;;;;;;;;;5012079;28;20033;-60
2023/01/23 10:59:04;;;;;;;14.05;8.18;;;;;;;;;;5019922;28;20141;-57
2023/01/23 11:01:34;;;;;;;14.65;8.07;;;;;;;;;;5021462;28;20095;-56
2023/01/23 11:04:22;;;;;;;14.60;8.48;;;;;;;;;;5011738;28;20033;-58
2023/01/23 11:07:08;;;;;;;15.93;8.43;;;;;;;;;;5029571;28;20486;-60
2023/01/23 11:09:50;;;;;;;13.52;7.40;;;;;;;;;;5012593;28;20030;-59
2023/01/23 11:12:25;;;;;;;14.35;7.90;;;;;;;;;;5012792;28;20474;-55
2023/01/23 11:14:54;;;;;;;12.98;7.25;;;;;;;;;;5021284;28;20029;-55
2023/01/23 11:17:22;;;;;;;12.98;7.53;;;;;;;;;;5043791;28;20554;-57
2023/01/23 11:19:53;;;;;;;12.80;7.47;;;;;;;;;;5023464;28;20102;-61
2023/01/23 11:22:40;;;;;;;12.73;7.88;;;;;;;;;;5027656;28;20607;-59
2023/01/23 11:25:35;;;;;;;14.13;7.93;;;;;;;;;;5028060;28;20029;-56
2023/01/23 11:28:29;;;;;;;13.23;8.00;;;;;;;;;;5014331;28;20046;-60
2023/01/23 11:31:13;;;;;;;13.85;7.95;;;;;;;;;;5026153;28;20532;-59
2023/01/23 11:34:10;;;;;;;15.23;7.78;;;;;;;;;;5029787;28;20090;-65
2023/01/23 11:36:50;;;;;;;13.57;7.60;;;;;;;;;;5026673;28;20045;-58
2023/01/23 11:39:37;;;;;;;13.00;7.32;;;;;;;;;;5027275;28;20076;-60
2023/01/23 11:42:03;;;;;;;13.82;8.07;;;;;;;;;;5025381;28;20095;-57
2023/01/23 11:44:29;;;;;;;13.88;7.93;;;;;;;;;;5021410;28;20033;-61
2023/01/23 11:47:18;;;;;;;14.00;8.18;;;;;;;;;;5029884;28;20033;-59
2023/01/23 11:49:56;;;;;;;16.00;8.43;;;;;;;;;;5016063;28;20044;-60
2023/01/23 11:52:30;;;;;;;15.35;8.30;;;;;;;;;;5030016;28;20033;-60
2023/01/23 11:55:07;;;;;;;16.20;7.97;;;;;;;;;;5030197;28;20075;-61
2023/01/23 11:58:13;;;;;;;14.48;8.48;;;;;;;;;;5019495;28;20029;-60
2023/01/23 12:01:12;;;;;;;15.02;8.45;;;;;;;;;;5016180;28;20513;-61
2023/01/23 12:03:52;;;;;;;13.85;8.13;;;;;;;;;;5025289;28;20092;-57
2023/01/23 12:06:38;;;;;;;14.13;8.43;;;;;;;;;;5027423;28;20041;-60
2023/01/23 12:09:12;;;;;;;13.75;7.32;;;;;;;;;;5025823;28;20029;-61
2023/01/23 12:11:43;;;;;;;13.75;8.20;;;;;;;;;;5030140;28;20033;-60
2023/01/23 12:14:47;;;;;;;15.32;8.02;;;;;;;;;;5022551;28;20022;-60
2023/01/23 12:17:29;;;;;;;14.52;8.25;;;;;;;;;;5010592;28;20129;-56
2023/01/23 12:20:16;;;;;;;14.23;7.72;;;;;;;;;;5010502;28;20030;-56
2023/01/23 12:23:03;;;;;;;14.77;8.48;;;;;;;;;;5028436;28;20036;-61
2023/01/23 12:25:33;;;;;;;14.50;8.75;;;;;;;;;;5030571;28;20026;-61
2023/01/23 12:28:18;;;;;;;15.00;8.75;;;;;;;;;;5023177;28;20037;-59
2023/01/23 12:30:49;;;;;;;16.33;9.18;;;;;;;;;;5029742;28;20398;-56
2023/01/23 12:33:15;;;;;;;16.27;9.27;;;;;;;;;;5026130;28;20029;-60
2023/01/23 12:35:49;;;;;;;14.98;8.93;;;;;;;;;;5028232;28;20041;-60
2023/01/23 12:38:38;;;;;;;15.10;8.65;;;;;;;;;;5027273;28;20034;-60
2023/01/23 12:41:36;;;;;;;16.55;9.80;;;;;;;;;;5028426;28;20069;-58
2023/01/23 12:44:23;;;;;;;15.35;9.13;;;;;;;;;;5031986;28;20033;-59
2023/01/23 12:47:01;;;;;;;17.48;9.52;;;;;;;;;;5034430;28;20033;-58
2023/01/23 12:49:47;;;;;;;16.50;9.73;;;;;;;;;;5033480;28;20034;-59
2023/01/23 12:52:22;;;;;;;16.35;9.50;;;;;;;;;;5034073;28;20033;-60
2023/01/23 12:55:06;;;;;;;17.25;10.35;;;;;;;;;;5023194;28;20029;-63
2023/01/23 12:57:43;;;;;;;15.52;9.18;;;;;;;;;;5033667;28;20548;-62
2023/01/23 13:00:23;;;;;;;16.95;9.52;;;;;;;;;;5045415;28;20049;-62
2023/01/23 13:02:57;;;;;;;18.13;10.30;;;;;;;;;;5033938;28;20061;-62
2023/01/23 13:05:33;;;;;;;16.50;10.18;;;;;;;;;;5028190;28;20065;-58
2023/01/23 13:08:17;;;;;;;17.40;10.07;;;;;;;;;;5035713;28;20034;-56
2023/01/23 13:13:50;;;;;;;17.60;10.93;;;;;;;;;;5031451;28;20045;-61
2023/01/23 13:16:18;;;;;;;17.17;9.82;;;;;;;;;;5032182;28;20384;-60
2023/01/23 13:22:17;;;;;;;;;;;;;;;;;;5033033;28;20036;-58
2023/01/23 13:27:40;;;;;;;20.80;10.85;;;;;;;;;;5024938;28;20146;-58
2023/01/23 13:30:31;;;;;;;19.52;10.65;;;;;;;;;;5033044;28;20462;-53
2023/01/23 13:33:29;;;;;;;20.70;10.93;;;;;;;;;;5026075;28;20046;-61
2023/01/23 13:35:58;;;;;;;20.40;11.15;;;;;;;;;;5026161;28;20041;-61
2023/01/23 13:38:25;;;;;;;19.90;11.15;;;;;;;;;;5038163;28;20071;-59
2023/01/23 13:41:10;;;;;;;22.23;11.07;;;;;;;;;;5037464;28;20041;-58
2023/01/23 13:43:48;;;;;;;17.95;10.10;;;;;;;;;;5038074;28;20090;-58
2023/01/23 13:46:44;;;;;;;18.45;10.23;;;;;;;;;;5029285;28;20292;-57
2023/01/23 13:49:54;;;;;;;19.77;11.07;;;;;;;;;;5031257;28;20053;-59
2023/01/23 13:58:33;;;;;;;19.20;10.48;;;;;;;;;;5053254;28;20036;-55
2023/01/23 14:06:39;;;;;;;23.00;13.57;;;;;;;;;;5013355;28;20080;-58
2023/01/23 14:09:23;;;;;;;24.13;13.98;;;;;;;;;;5033163;28;20505;-58
2023/01/23 14:12:01;;;;;;;20.52;10.90;;;;;;;;;;5030736;28;20101;-60
2023/01/23 14:17:16;;;;;;;19.63;10.63;;;;;;;;;;5030999;28;20452;-58
2023/01/23 14:20:05;;;;;;;18.55;10.43;;;;;;;;;;5030928;28;20093;-60
2023/01/23 14:22:31;;;;;;;19.30;10.80;;;;;;;;;;5013063;28;20056;-57
2023/01/23 14:24:57;;;;;;;18.45;10.27;;;;;;;;;;5022078;28;20049;-60
2023/01/23 14:27:35;;;;;;;18.70;10.23;;;;;;;;;;5016494;28;20029;-59
2023/01/23 14:30:13;;;;;;;20.83;11.07;;;;;;;;;;5015223;28;20474;-58
2023/01/23 14:32:38;;;;;;;19.15;10.05;;;;;;;;;;5030184;28;20021;-61
2023/01/23 14:35:26;;;;;;;18.88;10.48;;;;;;;;;;5027790;28;20033;-58
2023/01/23 14:37:54;;;;;;;19.55;10.70;;;;;;;;;;5027233;28;20033;-59
2023/01/23 14:40:21;;;;;;;21.50;11.57;;;;;;;;;;5032327;28;20053;-56
2023/01/23 14:42:59;;;;;;;26.40;11.93;;;;;;;;;;5031303;28;20068;-59
2023/01/23 14:45:29;;;;;;;21.90;10.35;;;;;;;;;;5032300;28;20037;-56
2023/01/23 14:47:54;;;;;;;23.05;11.45;;;;;;;;;;5011292;28;20117;-61
2023/01/23 14:50:22;;;;;;;19.90;10.43;;;;;;;;;;5030045;28;20338;-57
2023/01/23 14:52:59;;;;;;;21.70;10.48;;;;;;;;;;5033130;28;20108;-56
2023/01/23 14:55:27;;;;;;;21.80;10.45;;;;;;;;;;5029586;28;20053;-57
2023/01/23 14:57:55;;;;;;;20.08;9.98;;;;;;;;;;5031021;28;20458;-60
2023/01/23 15:00:22;;;;;;;20.10;10.30;;;;;;;;;;5030342;28;20053;-57
2023/01/23 15:02:53;;;;;;;20.70;10.18;;;;;;;;;;5032004;28;20037;-58
2023/01/23 15:05:22;;;;;;;;;;;;;;;;;;5026705;28;20033;-54
2023/01/23 15:07:56;;;;;;;17.98;9.82;;;;;;;;;;5032922;28;20366;-58
2023/01/23 15:10:40;;;;;;;20.90;10.57;;;;;;;;;;5028315;28;20382;-52